createdAt,value
2019-03-12T00:01:20.273Z,-6.30
2019-03-12T00:03:54.181Z,-6.34
2019-03-12T00:06:43.076Z,-6.38
2019-03-12T00:09:18.476Z,-6.45
2019-03-12T00:12:00.085Z,-6.39
2019-03-12T00:14:37.003Z,-6.50
2019-03-12T00:17:16.306Z,-6.52
2019-03-12T00:20:12.308Z,-6.60
2019-03-12T00:22:47.378Z,-6.63
2019-03-12T00:25:25.893Z,-6.56
2019-03-12T00:28:01.908Z,-6.71
2019-03-12T00:30:38.340Z,-6.65
2019-03-12T00:33:13.644Z,-6.78
2019-03-12T00:35:52.075Z,-6.67
2019-03-12T00:38:27.651Z,-6.74
2019-03-12T00:41:08.258Z,-6.78
2019-03-12T00:43:44.437Z,-6.87
2019-03-12T00:46:26.886Z,-6.94
2019-03-12T00:49:05.927Z,-6.86
2019-03-12T00:51:47.535Z,-6.89
2019-03-12T00:54:17.442Z,-6.90
2019-03-12T00:56:52.880Z,-6.87
2019-03-12T00:59:23.681Z,-6.95
2019-03-12T01:02:17.170Z,-7.29
2019-03-12T01:07:22.550Z,-6.83
2019-03-12T01:09:56.918Z,-6.85
2019-03-12T01:12:36.615Z,-7.03
2019-03-12T01:15:10.731Z,-7.11
2019-03-12T01:17:41.282Z,-7.20
2019-03-12T01:20:12.993Z,-7.24
2019-03-12T01:22:48.144Z,-7.08
2019-03-12T01:25:29.538Z,-7.15
2019-03-12T01:28:03.216Z,-7.05
2019-03-12T01:30:36.534Z,-6.94
2019-03-12T01:33:07.339Z,-7.02
2019-03-12T01:35:39.802Z,-7.03
2019-03-12T01:38:16.802Z,-7.12
2019-03-12T01:40:51.678Z,-7.25
2019-03-12T01:43:25.918Z,-7.34
2019-03-12T01:46:04.422Z,-7.30
2019-03-12T01:48:40.804Z,-7.36
2019-03-12T01:51:15.863Z,-7.25
2019-03-12T01:53:55.291Z,-7.32
2019-03-12T01:56:29.302Z,-7.42
2019-03-12T01:59:20.730Z,-7.49
2019-03-12T02:01:58.153Z,-7.39
2019-03-12T02:04:29.486Z,-7.56
2019-03-12T02:07:00.691Z,-7.67
2019-03-12T02:09:51.045Z,-7.64
2019-03-12T02:12:21.674Z,-7.52
2019-03-12T02:14:56.330Z,-7.55
2019-03-12T02:17:31.834Z,-7.55
2019-03-12T02:20:18.990Z,-7.66
2019-03-12T02:22:53.926Z,-7.68
2019-03-12T02:25:26.973Z,-7.74
2019-03-12T02:27:58.102Z,-7.82
2019-03-12T02:30:37.778Z,-7.71
2019-03-12T02:33:12.330Z,-7.62
2019-03-12T02:35:45.283Z,-7.69
2019-03-12T02:38:20.545Z,-7.82
2019-03-12T02:40:55.647Z,-7.73
2019-03-12T02:43:28.355Z,-7.85
2019-03-12T02:46:12.464Z,-7.96
2019-03-12T02:48:46.201Z,-7.82
2019-03-12T02:51:19.445Z,-7.91
2019-03-12T02:53:50.712Z,-7.92
2019-03-12T02:56:24.601Z,-7.78
2019-03-12T02:58:55.228Z,-7.88
2019-03-12T03:01:26.062Z,-7.92
2019-03-12T03:03:56.838Z,-7.83
2019-03-12T03:06:55.261Z,-7.94
2019-03-12T03:09:27.203Z,-7.96
2019-03-12T03:12:05.026Z,-8.06
2019-03-12T03:14:50.272Z,-8.19
2019-03-12T03:17:44.101Z,-8.23
2019-03-12T03:20:20.230Z,-8.19
2019-03-12T03:22:53.079Z,-8.24
2019-03-12T03:25:25.649Z,-8.28
2019-03-12T03:27:57.939Z,-8.14
2019-03-12T03:30:47.955Z,-8.13
2019-03-12T03:33:20.917Z,-8.23
2019-03-12T03:35:55.721Z,-8.17
2019-03-12T03:38:41.942Z,-8.32
2019-03-12T03:41:12.219Z,-8.30
2019-03-12T03:43:46.838Z,-8.46
2019-03-12T03:46:31.179Z,-8.48
2019-03-12T03:49:03.305Z,-8.50
2019-03-12T03:51:44.627Z,-8.51
2019-03-12T03:54:15.350Z,-8.52
2019-03-12T03:56:55.517Z,-8.49
2019-03-12T03:59:26.548Z,-8.52
2019-03-12T04:01:58.477Z,-8.63
2019-03-12T04:04:38.093Z,-8.69
2019-03-12T04:07:12.101Z,-8.58
2019-03-12T04:09:46.918Z,-8.63
2019-03-12T04:12:19.165Z,-8.75
2019-03-12T04:14:49.895Z,-8.65
2019-03-12T04:17:25.464Z,-8.71
2019-03-12T04:19:56.301Z,-8.65
2019-03-12T04:22:26.848Z,-8.70
2019-03-12T04:24:59.040Z,-8.84
2019-03-12T04:27:31.859Z,-8.87
2019-03-12T04:30:16.101Z,-8.71
2019-03-12T04:32:48.195Z,-8.86
2019-03-12T04:35:19.520Z,-8.98
2019-03-12T04:37:50.206Z,-9.01
2019-03-12T04:40:21.140Z,-9.04
2019-03-12T04:43:25.096Z,-9.00
2019-03-12T04:45:55.885Z,-8.96
2019-03-12T04:48:26.958Z,-9.11
2019-03-12T04:51:06.331Z,-8.95
2019-03-12T04:53:49.099Z,-8.96
2019-03-12T04:56:19.891Z,-9.02
2019-03-12T04:59:04.384Z,-9.07
2019-03-12T05:01:42.891Z,-9.20
2019-03-12T05:04:27.798Z,-9.11
2019-03-12T05:07:54.082Z,-9.14
2019-03-12T05:13:28.646Z,-9.18
2019-03-12T05:16:13.278Z,-9.07
2019-03-12T05:18:52.853Z,-9.10
2019-03-12T05:21:55.528Z,-9.20
2019-03-12T05:24:35.962Z,-9.20
2019-03-12T05:27:58.881Z,-9.26
2019-03-12T05:30:38.392Z,-9.10
2019-03-12T05:33:29.233Z,-9.16
2019-03-12T05:35:51.660Z,-9.19
2019-03-12T05:38:30.384Z,-9.16
2019-03-12T05:41:08.325Z,-9.09
2019-03-12T05:44:00.083Z,-9.08
2019-03-12T05:46:34.951Z,-8.90
2019-03-12T05:49:11.507Z,-8.80
2019-03-12T05:51:43.458Z,-8.61
2019-03-12T05:54:18.788Z,-8.22
2019-03-12T05:56:56.002Z,-8.02
2019-03-12T06:00:09.149Z,-7.91
2019-03-12T06:03:15.798Z,-7.85
2019-03-12T06:12:38.149Z,-6.66
2019-03-12T06:15:27.162Z,-6.69
2019-03-12T06:18:32.110Z,-6.85
2019-03-12T06:21:22.078Z,-6.73
2019-03-12T06:23:58.015Z,-6.66
2019-03-12T06:26:37.305Z,-6.68
2019-03-12T06:29:21.336Z,-6.74
2019-03-12T06:32:18.549Z,-6.84
2019-03-12T06:35:21.361Z,-6.80
2019-03-12T06:38:10.467Z,-6.64
2019-03-12T06:41:09.604Z,-6.26
2019-03-12T06:43:53.810Z,-5.66
2019-03-12T06:46:53.132Z,-5.54
2019-03-12T06:49:45.061Z,-5.77
2019-03-12T06:52:44.508Z,-6.26
2019-03-12T06:55:45.059Z,-6.31
2019-03-12T06:58:49.841Z,-6.18
2019-03-12T07:02:04.444Z,-5.94
2019-03-12T07:05:07.447Z,-5.35
2019-03-12T07:08:19.500Z,-4.10
2019-03-12T07:10:55.125Z,-2.88
2019-03-12T07:14:10.955Z,-1.82
2019-03-12T07:17:09.000Z,-0.60
2019-03-12T07:19:55.023Z,0.78
2019-03-12T07:22:40.572Z,1.31
2019-03-12T07:25:51.210Z,0.84
2019-03-12T07:28:50.223Z,0.12
2019-03-12T07:31:39.916Z,-0.54
2019-03-12T07:34:50.087Z,-0.47
2019-03-12T07:37:56.781Z,-0.12
2019-03-12T07:40:53.027Z,1.49
2019-03-12T07:47:54.522Z,5.92
2019-03-12T07:51:44.071Z,7.08
2019-03-12T07:54:25.397Z,8.08
2019-03-12T07:57:35.757Z,8.92
2019-03-12T08:01:21.040Z,8.87
2019-03-12T08:04:26.051Z,7.84
2019-03-12T08:11:41.856Z,6.96
2019-03-12T08:14:58.565Z,6.93
2019-03-12T08:18:00.434Z,6.12
2019-03-12T08:24:46.246Z,3.35
2019-03-12T08:28:27.682Z,3.08
2019-03-12T08:32:16.892Z,4.61
2019-03-12T08:42:23.327Z,8.55
2019-03-12T08:50:30.985Z,7.82
2019-03-12T08:55:58.596Z,9.41
2019-03-12T08:59:46.107Z,9.91
2019-03-12T09:03:42.425Z,9.49
2019-03-12T09:09:30.336Z,6.61
2019-03-12T09:12:39.334Z,7.23
2019-03-12T09:19:00.972Z,6.68
2019-03-12T09:21:45.005Z,5.27
2019-03-12T09:25:13.727Z,5.78
2019-03-12T09:28:36.858Z,6.77
2019-03-12T09:31:43.271Z,6.87
2019-03-12T09:35:01.589Z,6.52
2019-03-12T09:41:44.720Z,7.49
2019-03-12T09:45:04.192Z,7.68
2019-03-12T09:48:16.548Z,7.43
2019-03-12T09:51:58.674Z,7.67
2019-03-12T09:55:12.920Z,8.58
2019-03-12T10:03:32.924Z,10.22
2019-03-12T10:06:27.495Z,10.42
2019-03-12T10:17:35.030Z,12.63
2019-03-12T10:20:33.414Z,12.65
2019-03-12T10:27:21.330Z,14.73
2019-03-12T10:33:34.069Z,16.61
2019-03-12T10:40:36.706Z,16.54
2019-03-12T10:43:32.987Z,16.55
2019-03-12T10:47:17.075Z,16.04
2019-03-12T10:53:38.538Z,16.28
2019-03-12T11:00:09.072Z,17.44
2019-03-12T11:06:56.713Z,16.99
2019-03-12T11:18:12.347Z,17.39
2019-03-12T11:34:41.025Z,18.04
2019-03-12T11:37:42.874Z,17.20
2019-03-12T11:41:15.329Z,16.55
2019-03-12T11:51:07.663Z,15.37
2019-03-12T12:05:44.537Z,15.78
2019-03-12T12:06:28.346Z,15.16
2019-03-12T12:13:04.532Z,14.60
2019-03-12T12:16:11.746Z,13.28
2019-03-12T12:19:11.779Z,13.20
2019-03-12T12:22:26.723Z,13.01
2019-03-12T12:29:30.070Z,12.49
2019-03-12T12:35:51.829Z,11.53
2019-03-12T12:58:03.745Z,8.74
2019-03-12T13:03:06.437Z,9.13
2019-03-12T13:06:34.583Z,9.73
2019-03-12T13:18:50.854Z,11.24
2019-03-12T13:21:51.080Z,10.99
2019-03-12T13:48:46.676Z,10.32
2019-03-12T13:49:05.232Z,9.78
2019-03-12T13:52:20.192Z,9.75
2019-03-12T14:24:53.093Z,10.48
2019-03-12T14:31:23.481Z,9.33
2019-03-12T15:12:44.842Z,6.10
2019-03-12T15:25:26.772Z,3.63
2019-03-12T15:39:02.045Z,1.53
2019-03-12T15:42:22.498Z,0.98
2019-03-12T15:48:23.673Z,0.04
2019-03-12T15:51:19.095Z,0.04
2019-03-12T15:57:55.324Z,-0.34
2019-03-12T16:00:56.765Z,-0.51
2019-03-12T16:04:35.636Z,-0.63
2019-03-12T16:11:11.727Z,-0.50
2019-03-12T16:14:00.424Z,-0.67
2019-03-12T16:17:23.668Z,-1.04
2019-03-12T16:33:39.890Z,-2.14
2019-03-12T16:36:13.894Z,-2.06
2019-03-12T16:38:57.533Z,-2.23
2019-03-12T16:41:56.426Z,-2.51
2019-03-12T16:47:47.395Z,-2.67
2019-03-12T16:50:28.538Z,-2.90
2019-03-12T16:53:21.770Z,-3.18
2019-03-12T16:59:44.723Z,-3.60
2019-03-12T17:02:30.723Z,-3.61
2019-03-12T17:05:25.994Z,-3.68
2019-03-12T17:07:47.487Z,-3.85
2019-03-12T17:10:20.769Z,-3.97
2019-03-12T17:13:04.501Z,-3.87
2019-03-12T17:15:54.731Z,-3.87
2019-03-12T17:18:53.308Z,-4.02
2019-03-12T17:21:36.318Z,-4.13
2019-03-12T17:24:19.249Z,-4.16
2019-03-12T17:26:55.158Z,-4.27
2019-03-12T17:29:26.277Z,-4.41
2019-03-12T17:32:10.375Z,-4.44
2019-03-12T17:37:44.257Z,-4.85
2019-03-12T17:40:26.660Z,-5.04
2019-03-12T17:43:02.674Z,-5.07
2019-03-12T17:45:47.021Z,-5.04
2019-03-12T17:48:26.982Z,-5.12
2019-03-12T17:51:05.741Z,-5.13
2019-03-12T17:54:01.621Z,-5.03
2019-03-12T17:56:39.066Z,-5.21
2019-03-12T17:59:31.129Z,-5.13
2019-03-12T18:02:02.205Z,-5.16
2019-03-12T18:04:35.927Z,-5.28
2019-03-12T18:07:10.086Z,-5.48
2019-03-12T18:09:56.039Z,-5.58
2019-03-12T18:12:43.150Z,-5.59
2019-03-12T18:15:19.511Z,-5.73
2019-03-12T18:17:57.440Z,-5.84
2019-03-12T18:20:33.472Z,-5.90
2019-03-12T18:23:07.473Z,-5.77
2019-03-12T18:25:50.060Z,-5.71
2019-03-12T18:28:46.290Z,-5.63
2019-03-12T18:31:13.670Z,-5.73
2019-03-12T18:33:54.468Z,-5.89
2019-03-12T18:36:29.993Z,-5.95
2019-03-12T18:39:06.322Z,-5.87
2019-03-12T18:41:58.147Z,-5.83
2019-03-12T18:44:33.026Z,-5.89
2019-03-12T18:47:07.382Z,-5.92
2019-03-12T18:49:46.486Z,-5.99
2019-03-12T18:52:20.084Z,-6.10
2019-03-12T18:54:53.521Z,-6.09
2019-03-12T18:57:28.245Z,-6.42
2019-03-12T19:00:12.684Z,-5.98
2019-03-12T19:03:31.729Z,-6.00
2019-03-12T19:05:30.051Z,-5.93
2019-03-12T19:08:04.374Z,-6.01
2019-03-12T19:10:52.368Z,-6.19
2019-03-12T19:13:26.504Z,-6.19
2019-03-12T19:16:00.251Z,-6.23
2019-03-12T19:18:36.286Z,-6.17
2019-03-12T19:21:12.367Z,-6.09
2019-03-12T19:23:56.509Z,-5.91
2019-03-12T19:26:30.751Z,-6.02
2019-03-12T19:29:02.777Z,-6.11
2019-03-12T19:32:18.609Z,-6.17
2019-03-12T19:34:49.241Z,-6.17
2019-03-12T19:37:21.914Z,-6.03
2019-03-12T19:40:01.043Z,-6.03
2019-03-12T19:42:34.804Z,-5.75
2019-03-12T19:45:17.858Z,-5.61
2019-03-12T19:49:01.464Z,-5.72
2019-03-12T19:51:11.405Z,-5.68
2019-03-12T19:53:43.298Z,-5.71
2019-03-12T19:56:17.521Z,-5.55
2019-03-12T19:59:22.882Z,-5.49
2019-03-12T20:01:47.979Z,-5.55
2019-03-12T20:04:24.359Z,-5.57
2019-03-12T20:07:04.209Z,-5.49
2019-03-12T20:10:05.954Z,-5.78
2019-03-12T20:13:25.202Z,-5.22
2019-03-12T20:16:37.128Z,-5.25
2019-03-12T20:23:40.559Z,-5.51
2019-03-12T20:27:15.719Z,-5.04
2019-03-12T20:37:00.775Z,-4.75
2019-03-12T20:40:17.942Z,-4.78
2019-03-12T20:43:46.348Z,-4.76
2019-03-12T20:47:28.740Z,-4.58
2019-03-12T20:50:47.388Z,-4.46
2019-03-12T20:54:25.106Z,-4.31
2019-03-12T20:59:54.119Z,-4.44
2019-03-12T21:01:38.137Z,-4.31
2019-03-12T21:04:47.757Z,-4.19
2019-03-12T21:19:59.698Z,-4.41
2019-03-12T21:22:49.950Z,-4.41
2019-03-12T21:26:11.970Z,-4.36
2019-03-12T21:29:15.950Z,-4.55
2019-03-12T21:38:05.808Z,-4.35
2019-03-12T21:40:51.018Z,-4.33
2019-03-12T21:43:41.002Z,-4.45
2019-03-12T21:46:24.973Z,-4.48
2019-03-12T21:49:48.145Z,-4.48
2019-03-12T21:52:48.045Z,-4.44
2019-03-12T21:56:16.208Z,-4.32
2019-03-12T22:02:58.339Z,-4.22
2019-03-12T22:05:36.262Z,-4.35
2019-03-12T22:08:49.075Z,-4.37
2019-03-12T22:11:41.574Z,-4.24
2019-03-12T22:14:18.604Z,-4.18
2019-03-12T22:16:53.885Z,-4.25
2019-03-12T22:19:27.174Z,-4.25
2019-03-12T22:22:30.918Z,-4.25
2019-03-12T22:25:01.411Z,-4.22
2019-03-12T22:27:36.427Z,-4.03
2019-03-12T22:30:13.417Z,-4.04
2019-03-12T22:32:50.848Z,-4.00
2019-03-12T22:35:24.738Z,-4.13
2019-03-12T22:37:55.298Z,-4.01
2019-03-12T22:40:48.403Z,-3.96
2019-03-12T22:47:07.480Z,-3.82
2019-03-12T22:49:21.449Z,-3.89
2019-03-12T22:54:49.216Z,-3.83
2019-03-12T22:57:21.396Z,-3.75
2019-03-12T22:59:54.902Z,-3.61
2019-03-12T23:02:55.414Z,-3.66
2019-03-12T23:05:46.266Z,-3.53
2019-03-12T23:08:34.206Z,-3.55
2019-03-12T23:11:46.955Z,-3.48
2019-03-12T23:14:25.253Z,-3.38
2019-03-12T23:17:15.872Z,-3.40
2019-03-12T23:23:06.770Z,-3.39
2019-03-12T23:28:35.207Z,-3.17
2019-03-12T23:31:27.984Z,-3.20
2019-03-12T23:34:35.955Z,-2.94
2019-03-12T23:37:54.184Z,-3.00
2019-03-12T23:40:30.917Z,-2.99
2019-03-12T23:43:24.355Z,-2.88
2019-03-12T23:46:48.503Z,-2.80
2019-03-12T23:50:18.790Z,-2.76
2019-03-12T23:53:12.369Z,-2.81
2019-03-12T23:55:55.060Z,-2.78
2019-03-12T23:59:22.793Z,-2.77
